Messages - map view · info · telemetry · weather · raw · status · beacons · messages · bulletins · browse · moving · my account
Callsign:
Show:

Loading message packets...

APRS messages are stored for 14 days. It is possible to search using wildcards (*?) after a prefix.

2019-04-23 04:42:12 CDT: VK2GJ-2>VK2GJ-7: Directs=VK2AMW-1
2019-04-23 04:42:27 CDT: KM4KAW-9>KM4KAW: SitRep: 10.53756 48.31f
2019-04-23 04:42:34 CDT: JO4DLN-9>JJ5MIB-7: %GE!
2019-04-23 04:43:03 CDT: JO4DLN-9>JN4UKS-9: %GE!
2019-04-23 04:44:01 CDT: DO1WAL-12>DB1NTO-2: PicoAPRS Check Update Version013
2019-04-23 04:44:03 CDT: JO4DLN-9>JN4UKS-9: %GE!
2019-04-23 04:44:48 CDT: EA1QV>ANSRVR: K ISS
2019-04-23 04:45:04 CDT: JO4DLN-9>JN4UKS-9: %GE!
2019-04-23 04:45:07 CDT: N9NMH>K9LUK: GM Lucky!
2019-04-23 04:45:47 CDT: N9NMH>K9VSO: GM Jim! 0.11 in Rain here yesterday.
2019-04-23 04:45:48 CDT: N9NMH>K9LUK: GM Lucky!
2019-04-23 04:46:02 CDT: N9NMH>KG9B-8: GM Joe! 0.11 in Rain here yesterday.
2019-04-23 04:46:04 CDT: JO4DLN-9>JN4UKS-9: %GE!
2019-04-23 04:46:27 CDT: N9NMH>K9VSO: GM Jim! 0.11 in Rain here yesterday.
2019-04-23 04:46:30 CDT: N9NMH>K9LUK: GM Lucky!
2019-04-23 04:46:43 CDT: N9NMH>KG9B-8: GM Joe! 0.11 in Rain here yesterday.
2019-04-23 04:47:04 CDT: JO4DLN-9>JN4UKS-9: %GE!
2019-04-23 04:47:09 CDT: N9NMH>K9LUK: GM Lucky!
2019-04-23 04:47:12 CDT: VK2GJ-2>VK2GJ-7: Directs=VK2AMW-1
2019-04-23 04:47:25 CDT: N9NMH>KG9B-8: GM Joe! 0.11 in Rain here yesterday.
2019-04-23 04:47:51 CDT: N9NMH>K9LUK: GM Lucky!
2019-04-23 04:48:06 CDT: N9NMH>KG9B-8: GM Joe! 0.11 in Rain here yesterday.
2019-04-23 04:48:15 CDT: VK2GJ-5>VK2GJ-7: Directs=VK2AMW-1
2019-04-23 04:48:32 CDT: N9NMH>K9LUK: GM Lucky!
2019-04-23 04:48:47 CDT: N9NMH>KG9B-8: GM Joe! 0.11 in Rain here yesterday.
2019-04-23 04:48:54 CDT: VE2LKC-7>WLNK-1: tjgpt
2019-04-23 04:48:55 CDT: WLNK-1>VE2LKC-7: Login [473]:
2019-04-23 04:49:06 CDT: N7QME-2>N7QME: temps 61.1 60.0 55.8 59.2 54.3 55.2 58.8 54.5
2019-04-23 04:49:20 CDT: DB0TS-10>DB0TS-9: T#001,000,000,000,000,000,00000000,Test
2019-04-23 04:49:27 CDT: N9NMH>KG9B-8: GM Joe! 0.11 in Rain here yesterday.
2019-04-23 04:49:28 CDT: DL0QW-12>OE5REO-7: Hallo Martin! Du bist bei OE/OO-349 Großer Spitzberg (JN77CT). Bei
2019-04-23 04:49:34 CDT: G0RSQ>G4FKH: A,-100.4,-102.8,-104.9,B,-89.4,-96.2,-98.1,C,-102.1,-111.5,-113,D,-101.7,-103.3,-104.9,E,-105.6,-110,-111.5
2019-04-23 04:49:55 CDT: WLNK-1>VE2LKC-7: Login [473]:
2019-04-23 04:50:05 CDT: VE2LKC-7>WLNK-1: o8kmda
2019-04-23 04:50:32 CDT: VE2LKC-7>WLNK-1: o8kmda
2019-04-23 04:51:07 CDT: M0NPQ>M0UKS-9: 2 min. now .tu 73
2019-04-23 04:51:29 CDT: MTHOOD>N7QME: hum 51 14 81
2019-04-23 04:51:36 CDT: OUNFFW>NWS-WARN: 231115z,FLASH_FLOOD,OKC075
2019-04-23 04:51:36 CDT: OUNFFW>NWS_WARN: 231115z,FLASH_FLOOD,OKC075
2019-04-23 04:51:55 CDT: WLNK-1>VE2LKC-7: Login [473]:
2019-04-23 04:52:09 CDT: W3VLG-14>K5ROK-14: Are u playing with your FT2d yet?
2019-04-23 04:52:12 CDT: VK2GJ-2>VK2GJ-7: Directs=VK2AMW-1
2019-04-23 04:52:23 CDT: AS64636>DO4BZ: D:user-so.db0ahi [1]
2019-04-23 04:52:24 CDT: AS64636>DL1NE: D:user-so.db0ahi [2]
2019-04-23 04:52:25 CDT: AS64636>DG4OAE: D:user-so.db0ahi [3]
2019-04-23 04:52:27 CDT: KM4KAW-9>KM4KAW: SitRep: 10.71496 48.08f
2019-04-23 04:52:40 CDT: SHLBTP>SHLBTP: Info - Cabinet Temp = 69.9F Vcc = 13.6V
2019-04-23 04:53:00 CDT: DO1WAL-12>DB1NTO-2: PicoAPRS Check Update Version013
2019-04-23 04:53:02 CDT: K9VSO>N9NMH: Hi Matt, 0.75" rain by 0430 Tuesday.Temp 41.
2019-04-23 04:53:16 CDT: W3VLG-14>K5ROK-14: Are u playing with your FT2d yet?
< previous
FAQ · Blog · Discussion group · Linking to aprs.fi · AIS sites · Service status · Database statistics · Advertising on aprs.fi · Technical details · API · Change log · Planned changes · Credits and thanks · Terms Of Service · iPhone/iPad APRS